createdAt,value
2023-03-05T00:01:35.165Z,44.00
2023-03-05T00:04:03.921Z,39.50
2023-03-05T00:06:34.194Z,35.78
2023-03-05T00:09:01.273Z,38.03
2023-03-05T00:11:30.248Z,37.97
2023-03-05T00:13:58.556Z,32.40
2023-03-05T00:16:28.280Z,41.97
2023-03-05T00:18:56.301Z,41.95
2023-03-05T00:21:22.842Z,35.88
2023-03-05T00:23:50.794Z,41.13
2023-03-05T00:26:19.681Z,39.58
2023-03-05T00:28:50.294Z,34.55
2023-03-05T00:31:18.124Z,42.95
2023-03-05T00:33:44.711Z,42.70
2023-03-05T00:36:16.105Z,39.10
2023-03-05T00:38:42.645Z,37.20
2023-03-05T00:41:11.777Z,39.97
2023-03-05T00:43:40.524Z,37.05
2023-03-05T00:46:07.301Z,33.60
2023-03-05T00:48:36.431Z,37.73
2023-03-05T00:51:09.307Z,36.33
2023-03-05T00:53:36.077Z,40.42
2023-03-05T00:56:05.487Z,38.88
2023-03-05T00:58:34.255Z,36.10
2023-03-05T01:01:04.373Z,38.77
2023-03-05T01:03:37.281Z,42.17
2023-03-05T01:06:12.630Z,41.25
2023-03-05T01:08:42.427Z,35.75
2023-03-05T01:11:12.407Z,35.13
2023-03-05T01:13:43.744Z,37.23
2023-03-05T01:16:10.321Z,36.58
2023-03-05T01:18:38.719Z,39.20
2023-03-05T01:21:07.789Z,41.20
2023-03-05T01:23:35.727Z,36.20
2023-03-05T01:26:08.641Z,39.67
2023-03-05T01:28:38.564Z,39.67
2023-03-05T01:31:08.773Z,35.60
2023-03-05T01:33:35.341Z,39.42
2023-03-05T01:36:02.087Z,40.50
2023-03-05T01:38:28.676Z,37.43
2023-03-05T01:40:55.213Z,34.85
2023-03-05T01:43:25.829Z,38.75
2023-03-05T01:46:31.380Z,34.95
2023-03-05T01:49:18.367Z,35.05
2023-03-05T01:52:00.956Z,40.27
2023-03-05T01:54:40.513Z,36.00
2023-03-05T01:57:20.162Z,37.75
2023-03-05T01:59:50.967Z,36.30
2023-03-05T02:02:23.083Z,41.20
2023-03-05T02:05:01.920Z,35.80
2023-03-05T02:07:30.015Z,37.15
2023-03-05T02:09:56.698Z,35.40
2023-03-05T02:12:23.438Z,37.55
2023-03-05T02:14:59.415Z,38.72
2023-03-05T02:17:28.070Z,40.20
2023-03-05T02:20:04.690Z,36.70
2023-03-05T02:22:33.761Z,36.47
2023-03-05T02:25:00.316Z,36.65
2023-03-05T02:27:35.648Z,40.60
2023-03-05T02:30:05.040Z,35.43
2023-03-05T02:32:34.101Z,39.35
2023-03-05T02:35:00.703Z,35.55
2023-03-05T02:37:29.452Z,36.97
2023-03-05T02:39:56.022Z,38.35
2023-03-05T02:42:25.033Z,34.27
2023-03-05T02:44:55.105Z,40.88
2023-03-05T02:47:23.854Z,35.83
2023-03-05T02:49:55.178Z,35.78
2023-03-05T02:52:23.254Z,36.38
2023-03-05T02:54:52.987Z,37.30
2023-03-05T02:57:22.406Z,34.15
2023-03-05T02:59:48.974Z,40.33
2023-03-05T03:02:17.958Z,41.88
2023-03-05T03:04:45.513Z,32.75
2023-03-05T03:07:15.886Z,36.03
2023-03-05T03:09:45.682Z,35.95
2023-03-05T03:12:12.641Z,36.45
2023-03-05T03:14:42.717Z,36.13
2023-03-05T03:17:14.274Z,36.05
2023-03-05T03:19:41.968Z,39.40
2023-03-05T03:22:11.128Z,35.38
2023-03-05T03:24:41.960Z,37.03
2023-03-05T03:27:08.916Z,36.90
2023-03-05T03:29:37.494Z,38.72
2023-03-05T03:32:04.794Z,34.27
2023-03-05T03:34:33.948Z,33.85
2023-03-05T03:37:00.486Z,38.13
2023-03-05T03:39:29.297Z,34.85
2023-03-05T03:41:58.470Z,37.30
2023-03-05T03:44:27.228Z,34.47
2023-03-05T03:46:54.849Z,32.80
2023-03-05T03:49:24.434Z,36.75
2023-03-05T03:51:55.026Z,36.67
2023-03-05T03:54:22.424Z,38.47
2023-03-05T03:56:53.777Z,35.73
2023-03-05T03:59:22.532Z,36.72
2023-03-05T04:01:49.153Z,35.75
2023-03-05T04:04:19.015Z,39.95
2023-03-05T04:06:45.579Z,38.35
2023-03-05T04:09:12.175Z,37.83
2023-03-05T04:11:41.727Z,37.92
2023-03-05T04:14:10.567Z,39.00
2023-03-05T04:16:39.383Z,35.88
2023-03-05T04:19:13.017Z,34.28
2023-03-05T04:21:40.214Z,38.37
2023-03-05T04:24:08.317Z,35.67
2023-03-05T04:26:39.927Z,38.42
2023-03-05T04:29:06.477Z,43.85
2023-03-05T04:31:33.100Z,41.22
2023-03-05T04:34:00.180Z,35.30
2023-03-05T04:36:26.769Z,36.83
2023-03-05T04:38:58.358Z,39.10
2023-03-05T04:41:24.899Z,33.35
2023-03-05T04:43:53.667Z,34.15
2023-03-05T04:46:20.204Z,36.87
2023-03-05T04:48:49.490Z,36.03
2023-03-05T04:51:16.007Z,31.98
2023-03-05T04:53:45.042Z,37.13
2023-03-05T04:56:11.591Z,38.00
2023-03-05T04:58:40.521Z,34.73
2023-03-05T05:01:10.821Z,38.67
2023-03-05T05:03:37.609Z,33.55
2023-03-05T05:06:04.394Z,30.70
2023-03-05T05:08:31.055Z,39.72
2023-03-05T05:11:05.577Z,33.57
2023-03-05T05:13:33.454Z,35.55
2023-03-05T05:16:03.275Z,33.58
2023-03-05T05:18:29.872Z,39.65
2023-03-05T05:20:56.448Z,36.60
2023-03-05T05:23:23.056Z,35.17
2023-03-05T05:25:59.279Z,34.70
2023-03-05T05:28:26.052Z,33.80
2023-03-05T05:30:52.884Z,32.25
2023-03-05T05:33:23.308Z,32.15
2023-03-05T05:35:52.654Z,36.87
2023-03-05T05:38:21.783Z,36.30
2023-03-05T05:40:48.330Z,32.33
2023-03-05T05:43:19.412Z,36.13
2023-03-05T05:45:46.058Z,37.08
2023-03-05T05:48:14.954Z,34.00
2023-03-05T05:50:43.826Z,35.08
2023-03-05T05:53:10.372Z,35.17
2023-03-05T05:55:41.137Z,33.25
2023-03-05T05:58:09.980Z,31.83
2023-03-05T06:00:38.796Z,33.33
2023-03-05T06:03:05.438Z,30.80
2023-03-05T06:05:36.975Z,33.38
2023-03-05T06:08:03.706Z,33.53
2023-03-05T06:10:30.333Z,31.92
2023-03-05T06:12:56.923Z,31.77
2023-03-05T06:15:23.458Z,32.58
2023-03-05T06:17:50.082Z,29.58
2023-03-05T06:20:16.788Z,31.05
2023-03-05T06:22:43.353Z,33.70
2023-03-05T06:25:10.569Z,32.20
2023-03-05T06:27:37.958Z,36.63
2023-03-05T06:30:10.087Z,34.38
2023-03-05T06:32:36.723Z,33.58
2023-03-05T06:35:06.258Z,36.63
2023-03-05T06:37:33.820Z,34.00
2023-03-05T06:40:02.688Z,38.60
2023-03-05T06:42:35.115Z,38.63
2023-03-05T06:45:01.703Z,37.50
2023-03-05T06:47:28.220Z,35.72
2023-03-05T06:49:56.991Z,36.30
2023-03-05T06:52:23.550Z,38.55
2023-03-05T06:54:55.821Z,38.60
2023-03-05T06:57:23.128Z,35.90
2023-03-05T06:59:50.193Z,36.00
2023-03-05T07:02:19.111Z,37.17
2023-03-05T07:04:47.792Z,34.67
2023-03-05T07:07:14.417Z,30.42
2023-03-05T07:09:46.059Z,41.13
2023-03-05T07:12:12.646Z,35.10
2023-03-05T07:14:39.523Z,44.23
2023-03-05T07:17:11.374Z,32.85
2023-03-05T07:19:38.561Z,39.15
2023-03-05T07:22:06.708Z,36.80
2023-03-05T07:24:33.277Z,40.97
2023-03-05T07:27:02.053Z,33.80
2023-03-05T07:29:29.034Z,39.53
2023-03-05T07:31:55.934Z,34.95
2023-03-05T07:34:27.185Z,32.13
2023-03-05T07:36:58.416Z,38.42
2023-03-05T07:39:29.770Z,38.10
2023-03-05T07:41:56.326Z,38.60
2023-03-05T07:44:27.390Z,38.50
2023-03-05T07:46:56.475Z,36.47
2023-03-05T07:49:23.809Z,39.75
2023-03-05T07:51:50.407Z,38.87
2023-03-05T07:54:19.156Z,42.53
2023-03-05T07:56:45.710Z,40.60
2023-03-05T07:59:13.787Z,37.20
2023-03-05T08:01:46.356Z,37.08
2023-03-05T08:04:15.973Z,38.37
2023-03-05T08:06:42.827Z,37.95
2023-03-05T08:09:09.350Z,35.15
2023-03-05T08:11:35.865Z,39.80
2023-03-05T08:14:02.425Z,36.80
2023-03-05T08:16:29.121Z,37.30
2023-03-05T08:18:59.174Z,35.65
2023-03-05T08:21:33.796Z,31.42
2023-03-05T08:24:05.009Z,30.38
2023-03-05T08:26:33.464Z,33.80
2023-03-05T08:29:00.119Z,35.07
2023-03-05T08:31:27.750Z,39.55
2023-03-05T08:33:56.576Z,38.33
2023-03-05T08:36:23.286Z,39.75
2023-03-05T08:38:50.683Z,32.45
2023-03-05T08:41:20.563Z,36.17
2023-03-05T08:43:49.628Z,27.63
2023-03-05T08:46:16.965Z,27.92
2023-03-05T08:48:43.984Z,34.95
2023-03-05T08:51:18.386Z,33.58
2023-03-05T08:53:45.875Z,38.83
2023-03-05T08:56:15.452Z,32.72
2023-03-05T08:58:46.184Z,36.45
2023-03-05T09:01:13.222Z,33.75
2023-03-05T09:03:40.010Z,34.05
2023-03-05T09:06:12.575Z,32.83
2023-03-05T09:08:39.737Z,33.90
2023-03-05T09:11:11.800Z,31.45
2023-03-05T09:13:38.488Z,30.45
2023-03-05T09:16:08.376Z,26.23
2023-03-05T09:18:36.764Z,28.43
2023-03-05T09:21:17.867Z,32.22
2023-03-05T09:23:45.371Z,29.92
2023-03-05T09:26:13.472Z,31.75
2023-03-05T09:28:40.917Z,25.17
2023-03-05T09:31:08.925Z,27.97
2023-03-05T09:33:36.792Z,27.85
2023-03-05T09:36:16.377Z,26.17
2023-03-05T09:38:47.454Z,22.88
2023-03-05T09:41:26.084Z,22.20
2023-03-05T09:44:10.975Z,21.90
2023-03-05T09:46:56.807Z,24.20
2023-03-05T09:49:39.255Z,23.90
2023-03-05T09:52:16.679Z,21.38
2023-03-05T09:54:48.576Z,24.95
2023-03-05T09:57:25.664Z,24.23
2023-03-05T09:59:59.550Z,24.00
2023-03-05T10:02:43.806Z,23.02
2023-03-05T10:05:27.228Z,24.92
2023-03-05T10:07:58.989Z,21.48
2023-03-05T10:10:47.389Z,24.80
2023-03-05T10:13:27.061Z,22.13
2023-03-05T10:16:08.894Z,18.17
2023-03-05T10:18:43.806Z,22.20
2023-03-05T10:21:22.136Z,22.98
2023-03-05T10:24:04.639Z,21.90
2023-03-05T10:27:00.430Z,26.25
2023-03-05T10:29:36.008Z,27.55
2023-03-05T10:32:29.969Z,25.13
2023-03-05T10:35:23.486Z,24.83
2023-03-05T10:38:05.289Z,23.37
2023-03-05T10:40:41.935Z,20.98
2023-03-05T10:43:19.932Z,22.25
2023-03-05T10:46:07.143Z,23.48
2023-03-05T10:48:47.600Z,21.35
2023-03-05T10:51:21.787Z,26.47
2023-03-05T10:54:13.274Z,25.63
2023-03-05T10:56:39.797Z,25.02
2023-03-05T10:59:08.563Z,27.98
2023-03-05T11:01:37.081Z,30.23
2023-03-05T11:04:08.418Z,24.70
2023-03-05T11:06:45.719Z,26.80
2023-03-05T11:09:29.674Z,26.77
2023-03-05T11:12:02.250Z,31.10
2023-03-05T11:14:33.502Z,28.13
2023-03-05T11:17:02.137Z,25.40
2023-03-05T11:19:33.411Z,31.42
2023-03-05T11:22:19.017Z,30.15
2023-03-05T11:25:02.684Z,28.45
2023-03-05T11:27:38.315Z,28.13
2023-03-05T11:30:20.236Z,25.37
2023-03-05T11:32:49.524Z,31.98
2023-03-05T11:35:35.801Z,30.70
2023-03-05T11:38:05.138Z,30.23
2023-03-05T11:40:35.884Z,30.45
2023-03-05T11:43:06.530Z,32.23
2023-03-05T11:45:34.095Z,28.80
2023-03-05T11:48:13.097Z,30.63
2023-03-05T11:50:41.812Z,28.98
2023-03-05T11:53:32.145Z,26.38
2023-03-05T11:56:22.275Z,27.90
2023-03-05T11:58:52.285Z,27.17
2023-03-05T12:01:24.929Z,29.67
2023-03-05T12:03:52.891Z,26.80
2023-03-05T12:06:37.598Z,26.55
2023-03-05T12:09:16.267Z,27.10
2023-03-05T12:11:43.431Z,28.40
2023-03-05T12:14:29.068Z,27.77
2023-03-05T12:17:09.632Z,29.17
2023-03-05T12:20:25.013Z,29.45
2023-03-05T12:22:51.684Z,26.87
2023-03-05T12:25:43.025Z,27.98
2023-03-05T12:28:18.311Z,25.13
2023-03-05T12:30:48.191Z,25.95
2023-03-05T12:33:34.959Z,24.65
2023-03-05T12:36:22.076Z,25.70
2023-03-05T12:38:58.078Z,25.15
2023-03-05T12:41:25.890Z,28.95
2023-03-05T12:44:06.046Z,26.80
2023-03-05T12:46:37.989Z,28.33
2023-03-05T12:49:28.804Z,26.77
2023-03-05T12:52:04.033Z,26.10
2023-03-05T12:54:42.362Z,25.67
2023-03-05T12:57:19.413Z,24.48
2023-03-05T13:00:21.749Z,25.60
2023-03-05T13:02:58.040Z,28.53
2023-03-05T13:05:34.276Z,25.92
2023-03-05T13:08:35.543Z,26.67
2023-03-05T13:11:16.506Z,28.08
2023-03-05T13:13:44.637Z,26.67
2023-03-05T13:16:26.870Z,26.97
2023-03-05T13:19:01.184Z,23.50
2023-03-05T13:21:31.242Z,26.30
2023-03-05T13:24:05.898Z,26.00
2023-03-05T13:26:40.542Z,26.60
2023-03-05T13:29:15.105Z,26.27
2023-03-05T13:31:46.323Z,25.70
2023-03-05T13:34:18.750Z,24.10
2023-03-05T13:37:04.546Z,25.80
2023-03-05T13:39:37.293Z,27.10
2023-03-05T13:42:15.827Z,26.70
2023-03-05T13:44:56.092Z,25.42
2023-03-05T13:47:28.641Z,24.42
2023-03-05T13:50:05.123Z,31.25
2023-03-05T13:52:41.056Z,22.33
2023-03-05T13:55:16.916Z,24.67
2023-03-05T13:57:53.121Z,26.05
2023-03-05T14:01:02.267Z,28.23
2023-03-05T14:03:30.157Z,28.63
2023-03-05T14:05:58.888Z,29.33
2023-03-05T14:08:29.943Z,27.63
2023-03-05T14:11:10.940Z,26.38
2023-03-05T14:13:37.571Z,30.42
2023-03-05T14:16:04.087Z,26.75
2023-03-05T14:18:36.793Z,18.60
2023-03-05T14:21:10.659Z,21.07
2023-03-05T14:23:45.379Z,21.15
2023-03-05T14:26:32.454Z,20.25
2023-03-05T14:29:02.098Z,18.60
2023-03-05T14:31:34.505Z,20.70
2023-03-05T14:34:09.868Z,24.70
2023-03-05T14:36:39.117Z,18.13
2023-03-05T14:39:05.758Z,19.73
2023-03-05T14:41:43.182Z,18.85
2023-03-05T14:44:17.871Z,18.98
2023-03-05T14:46:51.717Z,18.60
2023-03-05T14:49:18.369Z,21.60
2023-03-05T14:51:46.640Z,21.50
2023-03-05T14:54:22.989Z,19.63
2023-03-05T14:56:50.161Z,20.95
2023-03-05T14:59:17.954Z,19.73
2023-03-05T15:01:45.032Z,21.52
2023-03-05T15:04:15.594Z,19.42
2023-03-05T15:06:45.353Z,20.25
2023-03-05T15:09:17.737Z,20.05
2023-03-05T15:11:47.033Z,18.43
2023-03-05T15:14:13.617Z,19.45
2023-03-05T15:16:44.676Z,19.90
2023-03-05T15:19:14.473Z,18.80
2023-03-05T15:21:41.560Z,18.90
2023-03-05T15:24:11.462Z,20.27
2023-03-05T15:26:40.365Z,19.48
2023-03-05T15:29:09.225Z,19.45
2023-03-05T15:31:38.763Z,18.40
2023-03-05T15:34:05.955Z,19.15
2023-03-05T15:36:33.643Z,17.30
2023-03-05T15:39:02.614Z,15.52
2023-03-05T15:41:29.219Z,18.70
2023-03-05T15:43:55.800Z,17.95
2023-03-05T15:46:22.442Z,16.52
2023-03-05T15:48:50.294Z,14.97
2023-03-05T15:51:17.588Z,16.55
2023-03-05T15:53:46.388Z,14.63
2023-03-05T15:56:19.679Z,14.52
2023-03-05T15:58:49.589Z,13.88
2023-03-05T16:01:19.254Z,13.27
2023-03-05T16:03:48.216Z,17.02
2023-03-05T16:06:22.472Z,15.05
2023-03-05T16:08:52.509Z,12.75
2023-03-05T16:11:19.965Z,13.68
2023-03-05T16:13:50.449Z,14.80
2023-03-05T16:16:21.700Z,14.50
2023-03-05T16:18:48.447Z,14.07
2023-03-05T16:21:15.305Z,12.85
2023-03-05T16:23:44.068Z,15.82
2023-03-05T16:26:10.850Z,15.97
2023-03-05T16:28:37.662Z,15.23
2023-03-05T16:31:06.559Z,12.75
2023-03-05T16:33:33.279Z,12.63
2023-03-05T16:36:27.361Z,15.73
2023-03-05T16:39:00.960Z,14.93
2023-03-05T16:41:30.241Z,15.35
2023-03-05T16:44:02.153Z,16.27
2023-03-05T16:46:30.386Z,15.07
2023-03-05T16:49:00.241Z,13.32
2023-03-05T16:51:27.282Z,15.87
2023-03-05T16:53:55.591Z,15.30
2023-03-05T16:56:22.369Z,14.07
2023-03-05T16:58:51.391Z,14.15
2023-03-05T17:01:23.697Z,15.25
2023-03-05T17:03:54.061Z,17.17
2023-03-05T17:06:25.764Z,14.98
2023-03-05T17:08:53.072Z,16.02
2023-03-05T17:11:23.078Z,15.55
2023-03-05T17:13:49.826Z,14.65
2023-03-05T17:16:19.018Z,15.67
2023-03-05T17:18:45.957Z,16.75
2023-03-05T17:21:18.387Z,14.77
2023-03-05T17:23:47.218Z,12.88
2023-03-05T17:26:17.809Z,15.88
2023-03-05T17:28:47.367Z,14.90
2023-03-05T17:31:17.775Z,16.42
2023-03-05T17:33:44.460Z,15.65
2023-03-05T17:36:21.460Z,15.98
2023-03-05T17:38:48.703Z,13.52
2023-03-05T17:41:16.665Z,15.07
2023-03-05T17:43:43.286Z,16.65
2023-03-05T17:46:12.829Z,12.65
2023-03-05T17:48:41.892Z,12.68
2023-03-05T17:51:11.639Z,14.10
2023-03-05T17:53:40.534Z,12.30
2023-03-05T17:56:11.825Z,12.82
2023-03-05T17:58:48.613Z,12.68
2023-03-05T18:01:28.217Z,15.80
2023-03-05T18:12:02.165Z,12.65
2023-03-05T18:15:01.629Z,11.27
2023-03-05T18:17:46.294Z,11.77
2023-03-05T18:20:22.968Z,11.73
2023-03-05T18:29:54.235Z,11.25
2023-03-05T18:32:24.253Z,12.80
2023-03-05T18:34:50.839Z,9.90
2023-03-05T18:37:19.597Z,12.97
2023-03-05T18:39:46.170Z,11.48
2023-03-05T18:42:16.196Z,9.38
2023-03-05T18:44:47.616Z,11.55
2023-03-05T18:47:16.643Z,13.20
2023-03-05T18:49:43.236Z,12.47
2023-03-05T18:52:12.599Z,10.60
2023-03-05T18:54:41.608Z,11.60
2023-03-05T18:57:08.179Z,12.82
2023-03-05T18:59:37.272Z,13.25
2023-03-05T19:02:03.982Z,11.13
2023-03-05T19:04:32.951Z,11.65
2023-03-05T19:07:02.151Z,11.93
2023-03-05T19:09:48.904Z,13.00
2023-03-05T19:12:22.190Z,10.73
2023-03-05T19:14:51.218Z,14.53
2023-03-05T19:17:22.519Z,12.48
2023-03-05T19:19:56.062Z,10.80
2023-03-05T19:22:23.186Z,13.40
2023-03-05T19:24:53.028Z,11.93
2023-03-05T19:27:20.038Z,10.87
2023-03-05T19:29:46.714Z,13.77
2023-03-05T19:32:18.014Z,11.77
2023-03-05T19:34:47.177Z,13.15
2023-03-05T19:37:13.936Z,13.07
2023-03-05T19:39:43.323Z,13.40
2023-03-05T19:42:10.026Z,13.73
2023-03-05T19:44:39.041Z,15.98
2023-03-05T19:47:08.328Z,15.10
2023-03-05T19:49:35.885Z,12.52
2023-03-05T19:52:03.304Z,10.17
2023-03-05T19:54:30.007Z,12.48
2023-03-05T19:56:59.390Z,12.75
2023-03-05T19:59:26.040Z,12.93
2023-03-05T20:01:52.666Z,11.60
2023-03-05T20:04:23.087Z,17.10
2023-03-05T20:06:51.859Z,11.77
2023-03-05T20:09:20.945Z,13.85
2023-03-05T20:11:51.180Z,16.25
2023-03-05T20:14:17.768Z,13.55
2023-03-05T20:16:46.599Z,13.80
2023-03-05T20:19:17.398Z,12.95
2023-03-05T20:21:44.976Z,9.98
2023-03-05T20:24:14.532Z,11.57
2023-03-05T20:26:43.061Z,11.98
2023-03-05T20:29:10.747Z,11.40
2023-03-05T20:31:38.388Z,14.30
2023-03-05T20:34:09.900Z,13.23
2023-03-05T20:36:39.028Z,15.20
2023-03-05T20:39:06.756Z,13.18
2023-03-05T20:41:35.126Z,11.27
2023-03-05T20:44:03.362Z,12.00
2023-03-05T20:46:32.391Z,15.38
2023-03-05T20:49:03.949Z,13.50
2023-03-05T20:51:36.856Z,14.05
2023-03-05T20:54:11.929Z,15.07
2023-03-05T20:56:38.801Z,13.40
2023-03-05T20:59:09.257Z,16.77
2023-03-05T21:01:41.016Z,13.48
2023-03-05T21:04:08.868Z,16.95
2023-03-05T21:06:40.699Z,13.97
2023-03-05T21:09:12.550Z,14.00
2023-03-05T21:11:43.944Z,14.63
2023-03-05T21:14:10.628Z,14.48
2023-03-05T21:16:41.916Z,13.52
2023-03-05T21:19:08.500Z,12.47
2023-03-05T21:21:39.004Z,13.93
2023-03-05T21:24:05.906Z,13.02
2023-03-05T21:26:33.249Z,14.05
2023-03-05T21:29:02.030Z,12.00
2023-03-05T21:31:28.694Z,14.33
2023-03-05T21:33:55.257Z,9.93
2023-03-05T21:36:21.858Z,14.20
2023-03-05T21:38:53.324Z,13.23
2023-03-05T21:41:20.593Z,12.18
2023-03-05T21:43:49.929Z,12.57
2023-03-05T21:46:16.510Z,12.02
2023-03-05T21:48:43.059Z,10.95
2023-03-05T21:51:13.784Z,12.73
2023-03-05T21:53:42.686Z,14.57
2023-03-05T21:56:18.077Z,19.20
2023-03-05T21:58:44.675Z,18.25
2023-03-05T22:01:12.503Z,16.88
2023-03-05T22:03:42.375Z,16.48
2023-03-05T22:06:15.652Z,14.23
2023-03-05T22:08:47.146Z,15.57
2023-03-05T22:11:17.938Z,14.65
2023-03-05T22:13:44.647Z,15.10
2023-03-05T22:16:11.958Z,11.52
2023-03-05T22:18:40.788Z,11.32
2023-03-05T22:21:18.216Z,11.47
2023-03-05T22:23:44.872Z,13.18
2023-03-05T22:26:16.394Z,11.45
2023-03-05T22:28:45.173Z,18.98
2023-03-05T22:31:21.124Z,14.30
2023-03-05T22:33:48.025Z,14.87
2023-03-05T22:36:14.842Z,14.73
2023-03-05T22:38:44.031Z,16.40
2023-03-05T22:41:16.032Z,14.70
2023-03-05T22:43:45.553Z,12.88
2023-03-05T22:46:21.320Z,16.90
2023-03-05T22:48:48.420Z,16.70
2023-03-05T22:51:16.201Z,15.93
2023-03-05T22:53:43.204Z,16.30
2023-03-05T22:56:18.677Z,14.85
2023-03-05T22:58:48.324Z,18.40
2023-03-05T23:01:17.866Z,15.00
2023-03-05T23:03:44.550Z,17.20
2023-03-05T23:06:13.417Z,15.40
2023-03-05T23:08:39.949Z,17.50
2023-03-05T23:11:11.263Z,18.30
2023-03-05T23:13:39.502Z,16.98
2023-03-05T23:16:09.790Z,16.42
2023-03-05T23:18:41.240Z,16.60
2023-03-05T23:21:07.776Z,15.38
2023-03-05T23:23:34.331Z,15.80
2023-03-05T23:26:03.153Z,18.40
2023-03-05T23:28:29.801Z,19.15
2023-03-05T23:30:59.693Z,17.42
2023-03-05T23:33:27.198Z,16.77
2023-03-05T23:35:56.647Z,16.70
2023-03-05T23:38:28.039Z,16.10
2023-03-05T23:41:01.420Z,16.80
2023-03-05T23:43:28.093Z,16.73
2023-03-05T23:45:57.205Z,18.52
2023-03-05T23:48:28.612Z,17.00
2023-03-05T23:50:55.906Z,17.23
2023-03-05T23:53:25.077Z,15.40
2023-03-05T23:55:52.482Z,14.65
2023-03-05T23:58:22.768Z,17.52
